Login

sp458227
1 activity; - Last training unit 08/03/2015
08/03/2015 Show to everybody Pederobba Alpini 27.52 971 02:05:42 13.14 Km\h Methanol sl 29
07/03/2015 Show to everybody Pederobba Pianezze x 2 74.59 2001 05:03:53 14.73 Km\h Methanol sl 29
27/02/2015 Show to everybody Pederobba - Tomba 33.81 1404 02:27:57 13.71 Km\h Methanol sl 29
22/02/2015 Show to everybody Pederobba Tomba 28 1009 02:08:03 13.12 Km\h Methanol sl 29
21/02/2015 Show to everybody Pederobba Tomba 21.37 871 01:36:43 13.26 Km\h Methanol sl 29
14/02/2015 Show to everybody Pederobba Tomba x 2 33.67 1366 02:23:05 14.12 Km\h Methanol sl 29
08/02/2015 Show to everybody Pederobba - Toba x2 43.24 1664 03:17:38 13.13 Km\h Methanol sl 29
07/02/2015 Show to everybody Pederobba - Toba x2 38.56 1400 02:36:48 14.75 Km\h Methanol sl 29
21/10/2012 Show to everybody Mercato Vecchio, Mostacin, Tomba 81.85 1218 04:12:15 19.47 Km\h Methanol sl 29
07/10/2012 Show to everybody Monteviale-Isola Vicentina 30.6 657 01:38:15 18.69 Km\h Perla nera 26
07/10/2012 Show to everybody La Via dei Berici 43.31 876 02:53:06 15.01 Km\h Perla nera 26
30/09/2012 Show to everybody Mercato Vecchio,Mostacin,Tomba,Grappa 112.84 2294 05:49:05 19.4 Km\h Perla nera 26
23/09/2012 Show to everybody Festa dello sport Camposampiero 44.31 60 01:41:23 26.22 Km\h Perla nera 26
15/09/2012 Show to everybody Passo Malghen - roccolo 54.7 1719 03:46:20 14.5 Km\h Perla nera 26
26/08/2012 Show to everybody Mercato Vecchio 37.87 195 01:23:28 27.23 Km\h Perla nera 26
25/08/2012 Show to everybody Da Ile 26.49 16 00:51:07 31.09 Km\h Perla nera 26
24/08/2012 Show to everybody Monte Altissimo 55.83 2460 04:16:29 13.06 Km\h Perla nera 26
23/08/2012 Show to everybody Montello 52.76 479 02:31:18 20.92 Km\h Perla nera 26
21/08/2012 Show to everybody Dobbiaco - Elmo 58.08 1486 04:00:50 14.47 Km\h Perla nera 26
13/08/2012 Show to everybody Asolo - Cornuda 61.16 760 03:12:37 19.05 Km\h Perla nera 26
12/08/2012 Show to everybody Asiago 44.22 1301 03:29:08 12.69 Km\h Perla nera 26
11/08/2012 Show to everybody Fine batteria!!! 114.02 771 04:11:52 27.16 Km\h Perla nera 26
10/08/2012 Show to everybody Colli 50.69 1153 03:28:02 14.62 Km\h Perla nera 26
09/08/2012 Show to everybody Montello dopo donazione 450cc sangue :) 62.57 650 02:37:30 23.83 Km\h Perla nera 26
05/08/2012 Show to everybody M. Tomba rottura ruota libera 65.49 1187 03:33:06 18.44 Km\h Methanol sl 29
28/07/2012 Show to everybody M. Cesen che caldo! 95.96 1471 04:20:20 22.12 Km\h Methanol sl 29
22/07/2012 Show to everybody Mercato Vecchio, Mostacin, M. Tomba, Asolo 92.29 1662 04:14:35 21.75 Km\h Methanol sl 29
19/07/2012 Show to everybody Mostacin 55.17 637 02:12:31 24.98 Km\h Methanol sl 29
15/07/2012 Show to everybody Test ginocchio :( 30.49 65 01:06:09 27.65 Km\h Methanol sl 29
14/07/2012 Show to everybody Ripetute M. Cesen 149.02 2934 07:11:12 20.74 Km\h Methanol sl 29
08/07/2012 Show to everybody Sciogli gambe 68.82 494 02:45:58 24.88 Km\h Methanol sl 29
07/07/2012 Show to everybody Dolomiti Superbike 121.88 3221 07:02:59 17.29 Km\h Methanol sl 29
07/07/2012 Show to everybody verso la Dolomiti Superbike 5.88 64 00:16:27 21.45 Km\h Methanol sl 29
04/07/2012 Show to everybody Sciogli gambe 58.47 186 02:06:41 27.69 Km\h Methanol sl 29
01/07/2012 Show to everybody Test Dolomiti superbike (manca ultima salita) 115.73 2878 07:57:41 14.54 Km\h Methanol sl 29
30/06/2012 Show to everybody Test Ginocchio 9 95.14 1520 04:44:32 20.06 Km\h Methanol sl 29
28/06/2012 Show to everybody Test ginocchio 8 59.08 864 02:31:09 23.45 Km\h Methanol sl 29
27/06/2012 Show to everybody Test ginocchio 7 71.33 1111 03:06:23 22.96 Km\h Methanol sl 29
24/06/2012 Show to everybody Test ginocchio 6 145.61 3272 09:08:56 15.92 Km\h Methanol sl 29
22/06/2012 Show to everybody Test ginocchio 5 82.8 892 03:22:42 24.51 Km\h Methanol sl 29
21/06/2012 Show to everybody Test ginocchio 4 33.49 1033 02:28:52 13.5 Km\h Methanol sl 29
20/06/2012 Show to everybody Test ginocchio 3 77.56 773 03:20:47 23.18 Km\h Perla nera 26
16/06/2012 Show to everybody Test ginocchio 1 26.98 69 01:19:06 20.46 Km\h Methanol sl 29
16/06/2012 Show to everybody Test ginocchio 2 27.39 32 01:33:56 17.5 Km\h Methanol sl 29
10/06/2012 Show to everybody Test ginocchio 0 58.33 329 02:23:40 24.36 Km\h Methanol sl 29
09/06/2012 Show to everybody Pianezze ripetute sino a Malga Meriec 164.3 3378 08:31:03 19.29 Km\h Methanol sl 29
03/06/2012 Show to everybody Domenica 03/06/2012 Montello 107.21 2093 06:16:27 17.09 Km\h Methanol sl 29
02/06/2012 Show to everybody sabato 02/06/2012 M. Toba, M. Grappa 148 2938 07:29:03 19.78 Km\h Methanol sl 29
27/05/2012 Show to everybody Domenica 27/05/2012 126.23 2712 06:27:15 19.56 Km\h Methanol sl 29
26/05/2012 Show to everybody Sabato 26/05/2012 68 305 02:11:25 31.05 Km\h Methanol sl 29
20/05/2012 Show to everybody domenica 20/05/2012 124.79 2384 06:57:43 17.92 Km\h Methanol sl 29
Training units 0
Kilometers 0 Km
Vertical gain 0 mt
Hours of riding 00:00:00
Average speed 0 Km/h
average HR 138
Points 95
Live Tracking »

Methanol sl 29 137:11:55 2580.48 Km
Perla nera 26 49:11:17 927.01 Km

 
If you stop following this users you will not be able to compare your trainings with his

Now you follow this users and you can compare your trainings


MTB-Forum.it | 2012-2019 Training Camp v.1.6 rev 05